sensor_id;sensor_type;location;lat;lon;timestamp;P1;durP1;ratioP1;P2;durP2;ratioP2
81378;SDS011;70830;42.290;-71.354;2023-11-21T00:01:42;4.80;;;2.50;;
81378;SDS011;70830;42.290;-71.354;2023-11-21T00:04:08;2.58;;;2.38;;
81378;SDS011;70830;42.290;-71.354;2023-11-21T00:06:35;2.88;;;2.10;;
81378;SDS011;70830;42.290;-71.354;2023-11-21T00:09:01;2.35;;;1.95;;
81378;SDS011;70830;42.290;-71.354;2023-11-21T00:11:27;2.30;;;1.90;;
81378;SDS011;70830;42.290;-71.354;2023-11-21T00:13:54;2.42;;;2.05;;
81378;SDS011;70830;42.290;-71.354;2023-11-21T00:16:20;2.35;;;2.05;;
81378;SDS011;70830;42.290;-71.354;2023-11-21T00:18:47;4.30;;;1.70;;
81378;SDS011;70830;42.290;-71.354;2023-11-21T00:21:13;3.70;;;1.95;;
81378;SDS011;70830;42.290;-71.354;2023-11-21T00:23:39;6.28;;;1.90;;
81378;SDS011;70830;42.290;-71.354;2023-11-21T00:26:05;2.70;;;1.60;;
81378;SDS011;70830;42.290;-71.354;2023-11-21T00:28:31;2.80;;;1.40;;
81378;SDS011;70830;42.290;-71.354;2023-11-21T00:30:57;2.30;;;1.65;;
81378;SDS011;70830;42.290;-71.354;2023-11-21T00:33:23;2.83;;;1.90;;
81378;SDS011;70830;42.290;-71.354;2023-11-21T00:35:50;2.55;;;1.90;;
81378;SDS011;70830;42.290;-71.354;2023-11-21T00:38:16;3.45;;;1.60;;
81378;SDS011;70830;42.290;-71.354;2023-11-21T00:40:45;5.30;;;1.60;;
81378;SDS011;70830;42.290;-71.354;2023-11-21T00:43:11;2.47;;;2.00;;
81378;SDS011;70830;42.290;-71.354;2023-11-21T00:45:37;2.47;;;1.70;;
81378;SDS011;70830;42.290;-71.354;2023-11-21T00:48:03;2.15;;;1.45;;
81378;SDS011;70830;42.290;-71.354;2023-11-21T00:50:30;4.18;;;1.60;;
81378;SDS011;70830;42.290;-71.354;2023-11-21T00:52:56;1.98;;;1.60;;
81378;SDS011;70830;42.290;-71.354;2023-11-21T00:55:22;1.70;;;1.00;;
81378;SDS011;70830;42.290;-71.354;2023-11-21T00:57:48;3.38;;;1.58;;
81378;SDS011;70830;42.290;-71.354;2023-11-21T01:00:14;3.58;;;1.40;;
81378;SDS011;70830;42.290;-71.354;2023-11-21T01:02:43;3.53;;;1.58;;
81378;SDS011;70830;42.290;-71.354;2023-11-21T01:05:10;2.90;;;1.52;;
81378;SDS011;70830;42.290;-71.354;2023-11-21T01:07:36;3.00;;;1.48;;
81378;SDS011;70830;42.290;-71.354;2023-11-21T01:10:03;2.47;;;1.30;;
81378;SDS011;70830;42.290;-71.354;2023-11-21T01:12:33;3.17;;;1.67;;
81378;SDS011;70830;42.290;-71.354;2023-11-21T01:15:01;2.85;;;1.38;;
81378;SDS011;70830;42.290;-71.354;2023-11-21T01:17:27;3.90;;;1.33;;
81378;SDS011;70830;42.290;-71.354;2023-11-21T01:19:53;7.82;;;1.63;;
81378;SDS011;70830;42.290;-71.354;2023-11-21T01:22:19;3.08;;;1.08;;
81378;SDS011;70830;42.290;-71.354;2023-11-21T01:24:51;3.08;;;1.55;;
81378;SDS011;70830;42.290;-71.354;2023-11-21T01:27:17;3.72;;;1.42;;
81378;SDS011;70830;42.290;-71.354;2023-11-21T01:29:43;3.17;;;1.40;;
81378;SDS011;70830;42.290;-71.354;2023-11-21T01:32:10;2.95;;;1.58;;
81378;SDS011;70830;42.290;-71.354;2023-11-21T01:34:36;4.82;;;1.70;;
81378;SDS011;70830;42.290;-71.354;2023-11-21T01:37:02;3.83;;;1.60;;
81378;SDS011;70830;42.290;-71.354;2023-11-21T01:39:30;2.90;;;1.48;;
81378;SDS011;70830;42.290;-71.354;2023-11-21T01:41:57;3.20;;;1.65;;
81378;SDS011;70830;42.290;-71.354;2023-11-21T01:44:26;2.83;;;1.10;;
81378;SDS011;70830;42.290;-71.354;2023-11-21T01:46:52;2.72;;;1.58;;
81378;SDS011;70830;42.290;-71.354;2023-11-21T01:49:19;3.30;;;1.70;;
81378;SDS011;70830;42.290;-71.354;2023-11-21T01:51:46;1.95;;;1.30;;
81378;SDS011;70830;42.290;-71.354;2023-11-21T01:54:17;2.33;;;1.27;;
81378;SDS011;70830;42.290;-71.354;2023-11-21T01:56:46;3.38;;;1.73;;
81378;SDS011;70830;42.290;-71.354;2023-11-21T01:59:13;4.28;;;1.77;;
81378;SDS011;70830;42.290;-71.354;2023-11-21T02:01:43;2.60;;;1.48;;
81378;SDS011;70830;42.290;-71.354;2023-11-21T02:04:09;3.22;;;1.30;;
81378;SDS011;70830;42.290;-71.354;2023-11-21T02:06:35;3.20;;;1.50;;
81378;SDS011;70830;42.290;-71.354;2023-11-21T02:09:01;3.15;;;1.40;;
81378;SDS011;70830;42.290;-71.354;2023-11-21T02:11:30;2.90;;;1.52;;
81378;SDS011;70830;42.290;-71.354;2023-11-21T02:13:58;9.80;;;1.88;;
81378;SDS011;70830;42.290;-71.354;2023-11-21T02:16:26;3.25;;;1.30;;
81378;SDS011;70830;42.290;-71.354;2023-11-21T02:18:52;4.40;;;1.30;;
81378;SDS011;70830;42.290;-71.354;2023-11-21T02:21:19;3.28;;;1.58;;
81378;SDS011;70830;42.290;-71.354;2023-11-21T02:23:45;2.85;;;1.60;;
81378;SDS011;70830;42.290;-71.354;2023-11-21T02:26:12;4.40;;;1.63;;
81378;SDS011;70830;42.290;-71.354;2023-11-21T02:28:39;3.22;;;1.58;;
81378;SDS011;70830;42.290;-71.354;2023-11-21T02:31:05;3.50;;;1.50;;
81378;SDS011;70830;42.290;-71.354;2023-11-21T02:33:33;4.90;;;2.05;;
81378;SDS011;70830;42.290;-71.354;2023-11-21T02:35:59;2.97;;;1.23;;
81378;SDS011;70830;42.290;-71.354;2023-11-21T02:38:26;6.22;;;1.70;;
81378;SDS011;70830;42.290;-71.354;2023-11-21T02:40:51;1.98;;;1.33;;
81378;SDS011;70830;42.290;-71.354;2023-11-21T02:43:18;3.47;;;1.63;;
81378;SDS011;70830;42.290;-71.354;2023-11-21T02:45:44;4.10;;;1.67;;
81378;SDS011;70830;42.290;-71.354;2023-11-21T02:48:10;5.00;;;1.48;;
81378;SDS011;70830;42.290;-71.354;2023-11-21T02:50:36;4.10;;;1.67;;
81378;SDS011;70830;42.290;-71.354;2023-11-21T02:53:03;2.80;;;1.60;;
81378;SDS011;70830;42.290;-71.354;2023-11-21T02:55:31;4.97;;;1.70;;
81378;SDS011;70830;42.290;-71.354;2023-11-21T02:58:00;4.45;;;1.70;;
81378;SDS011;70830;42.290;-71.354;2023-11-21T03:00:26;3.35;;;1.73;;
81378;SDS011;70830;42.290;-71.354;2023-11-21T03:02:52;6.22;;;1.73;;
81378;SDS011;70830;42.290;-71.354;2023-11-21T03:05:20;5.57;;;2.15;;
81378;SDS011;70830;42.290;-71.354;2023-11-21T03:07:46;3.63;;;1.60;;
81378;SDS011;70830;42.290;-71.354;2023-11-21T03:10:12;3.80;;;1.52;;
81378;SDS011;70830;42.290;-71.354;2023-11-21T03:12:38;3.83;;;1.60;;
81378;SDS011;70830;42.290;-71.354;2023-11-21T03:15:05;4.90;;;1.83;;
81378;SDS011;70830;42.290;-71.354;2023-11-21T03:17:32;3.47;;;1.73;;
81378;SDS011;70830;42.290;-71.354;2023-11-21T03:20:01;4.60;;;1.88;;
81378;SDS011;70830;42.290;-71.354;2023-11-21T03:22:29;5.22;;;1.98;;
81378;SDS011;70830;42.290;-71.354;2023-11-21T03:24:55;6.15;;;2.25;;
81378;SDS011;70830;42.290;-71.354;2023-11-21T03:27:21;4.30;;;2.25;;
81378;SDS011;70830;42.290;-71.354;2023-11-21T03:29:47;5.05;;;1.80;;
81378;SDS011;70830;42.290;-71.354;2023-11-21T03:32:14;7.70;;;2.22;;
81378;SDS011;70830;42.290;-71.354;2023-11-21T03:34:53;5.32;;;2.38;;
81378;SDS011;70830;42.290;-71.354;2023-11-21T03:37:21;5.93;;;2.38;;
81378;SDS011;70830;42.290;-71.354;2023-11-21T03:39:47;4.93;;;1.83;;
81378;SDS011;70830;42.290;-71.354;2023-11-21T03:42:13;2.50;;;1.60;;
81378;SDS011;70830;42.290;-71.354;2023-11-21T03:44:39;5.72;;;2.22;;
81378;SDS011;70830;42.290;-71.354;2023-11-21T03:47:05;4.53;;;2.22;;
81378;SDS011;70830;42.290;-71.354;2023-11-21T03:49:31;4.10;;;1.90;;
81378;SDS011;70830;42.290;-71.354;2023-11-21T03:51:56;5.68;;;2.08;;
81378;SDS011;70830;42.290;-71.354;2023-11-21T03:54:22;4.07;;;1.58;;
81378;SDS011;70830;42.290;-71.354;2023-11-21T03:56:48;5.72;;;2.22;;
81378;SDS011;70830;42.290;-71.354;2023-11-21T03:59:14;2.50;;;1.50;;
81378;SDS011;70830;42.290;-71.354;2023-11-21T04:01:40;3.38;;;1.70;;
81378;SDS011;70830;42.290;-71.354;2023-11-21T04:04:06;3.38;;;1.70;;
81378;SDS011;70830;42.290;-71.354;2023-11-21T04:06:32;8.90;;;2.05;;
81378;SDS011;70830;42.290;-71.354;2023-11-21T04:08:58;4.78;;;1.80;;
81378;SDS011;70830;42.290;-71.354;2023-11-21T04:11:24;4.80;;;1.92;;
81378;SDS011;70830;42.290;-71.354;2023-11-21T04:13:50;4.57;;;2.08;;
81378;SDS011;70830;42.290;-71.354;2023-11-21T04:16:16;4.28;;;1.67;;
81378;SDS011;70830;42.290;-71.354;2023-11-21T04:18:42;3.70;;;1.65;;
81378;SDS011;70830;42.290;-71.354;2023-11-21T04:21:07;4.90;;;1.63;;
81378;SDS011;70830;42.290;-71.354;2023-11-21T04:23:33;3.90;;;1.80;;
81378;SDS011;70830;42.290;-71.354;2023-11-21T04:26:00;3.47;;;1.48;;
81378;SDS011;70830;42.290;-71.354;2023-11-21T04:28:27;4.15;;;1.92;;
81378;SDS011;70830;42.290;-71.354;2023-11-21T04:30:53;2.45;;;1.45;;
81378;SDS011;70830;42.290;-71.354;2023-11-21T04:33:19;3.17;;;1.42;;
81378;SDS011;70830;42.290;-71.354;2023-11-21T04:35:46;4.50;;;1.83;;
81378;SDS011;70830;42.290;-71.354;2023-11-21T04:38:12;4.63;;;1.80;;
81378;SDS011;70830;42.290;-71.354;2023-11-21T04:40:38;5.32;;;2.22;;
81378;SDS011;70830;42.290;-71.354;2023-11-21T04:43:04;5.55;;;2.08;;
81378;SDS011;70830;42.290;-71.354;2023-11-21T04:45:31;5.85;;;1.83;;
81378;SDS011;70830;42.290;-71.354;2023-11-21T04:47:57;5.15;;;1.80;;
81378;SDS011;70830;42.290;-71.354;2023-11-21T04:50:22;5.55;;;2.13;;
81378;SDS011;70830;42.290;-71.354;2023-11-21T04:52:48;5.20;;;1.80;;
81378;SDS011;70830;42.290;-71.354;2023-11-21T04:55:14;4.30;;;2.20;;
81378;SDS011;70830;42.290;-71.354;2023-11-21T04:57:40;5.45;;;2.17;;
81378;SDS011;70830;42.290;-71.354;2023-11-21T05:00:10;7.05;;;2.00;;
81378;SDS011;70830;42.290;-71.354;2023-11-21T05:02:37;6.25;;;2.30;;
81378;SDS011;70830;42.290;-71.354;2023-11-21T05:05:04;5.30;;;1.88;;
81378;SDS011;70830;42.290;-71.354;2023-11-21T05:07:31;5.35;;;2.17;;
81378;SDS011;70830;42.290;-71.354;2023-11-21T05:09:57;4.70;;;1.95;;
81378;SDS011;70830;42.290;-71.354;2023-11-21T05:12:24;4.15;;;1.83;;
81378;SDS011;70830;42.290;-71.354;2023-11-21T05:14:50;4.85;;;2.03;;
81378;SDS011;70830;42.290;-71.354;2023-11-21T05:17:17;5.53;;;2.05;;
81378;SDS011;70830;42.290;-71.354;2023-11-21T05:19:42;6.90;;;2.65;;
81378;SDS011;70830;42.290;-71.354;2023-11-21T05:22:10;5.53;;;1.50;;
81378;SDS011;70830;42.290;-71.354;2023-11-21T05:24:37;3.03;;;1.67;;
81378;SDS011;70830;42.290;-71.354;2023-11-21T05:27:06;4.32;;;2.50;;
81378;SDS011;70830;42.290;-71.354;2023-11-21T05:29:32;6.13;;;1.63;;
81378;SDS011;70830;42.290;-71.354;2023-11-21T05:31:58;2.78;;;1.35;;
81378;SDS011;70830;42.290;-71.354;2023-11-21T05:34:23;7.15;;;1.75;;
81378;SDS011;70830;42.290;-71.354;2023-11-21T05:36:50;4.63;;;2.10;;
81378;SDS011;70830;42.290;-71.354;2023-11-21T05:39:16;2.47;;;1.45;;
81378;SDS011;70830;42.290;-71.354;2023-11-21T05:41:46;6.45;;;2.15;;
81378;SDS011;70830;42.290;-71.354;2023-11-21T05:44:12;3.83;;;1.70;;
81378;SDS011;70830;42.290;-71.354;2023-11-21T05:46:39;3.88;;;1.80;;
81378;SDS011;70830;42.290;-71.354;2023-11-21T05:49:07;2.90;;;1.80;;
81378;SDS011;70830;42.290;-71.354;2023-11-21T05:51:34;3.03;;;1.63;;
81378;SDS011;70830;42.290;-71.354;2023-11-21T05:53:59;8.95;;;1.90;;
81378;SDS011;70830;42.290;-71.354;2023-11-21T05:56:25;3.85;;;1.73;;
81378;SDS011;70830;42.290;-71.354;2023-11-21T05:58:51;6.30;;;1.63;;
81378;SDS011;70830;42.290;-71.354;2023-11-21T06:01:17;4.45;;;1.90;;
81378;SDS011;70830;42.290;-71.354;2023-11-21T06:03:43;3.97;;;1.85;;
81378;SDS011;70830;42.290;-71.354;2023-11-21T06:06:11;3.58;;;1.60;;
81378;SDS011;70830;42.290;-71.354;2023-11-21T06:08:40;3.03;;;1.60;;
81378;SDS011;70830;42.290;-71.354;2023-11-21T06:11:06;5.25;;;2.00;;
81378;SDS011;70830;42.290;-71.354;2023-11-21T06:13:32;4.03;;;2.13;;
81378;SDS011;70830;42.290;-71.354;2023-11-21T06:15:57;3.35;;;1.38;;
81378;SDS011;70830;42.290;-71.354;2023-11-21T06:18:23;2.22;;;1.30;;
81378;SDS011;70830;42.290;-71.354;2023-11-21T06:20:49;2.35;;;1.35;;
81378;SDS011;70830;42.290;-71.354;2023-11-21T06:23:15;7.32;;;1.77;;
81378;SDS011;70830;42.290;-71.354;2023-11-21T06:25:41;3.08;;;1.50;;
81378;SDS011;70830;42.290;-71.354;2023-11-21T06:28:07;2.45;;;1.25;;
81378;SDS011;70830;42.290;-71.354;2023-11-21T06:30:36;2.70;;;1.42;;
81378;SDS011;70830;42.290;-71.354;2023-11-21T06:33:03;4.07;;;1.52;;
81378;SDS011;70830;42.290;-71.354;2023-11-21T06:35:29;4.38;;;1.23;;
81378;SDS011;70830;42.290;-71.354;2023-11-21T06:37:57;3.42;;;1.30;;
81378;SDS011;70830;42.290;-71.354;2023-11-21T06:40:23;4.78;;;1.20;;
81378;SDS011;70830;42.290;-71.354;2023-11-21T06:42:49;3.10;;;1.15;;
81378;SDS011;70830;42.290;-71.354;2023-11-21T06:45:16;4.70;;;1.77;;
81378;SDS011;70830;42.290;-71.354;2023-11-21T06:47:42;3.13;;;1.42;;
81378;SDS011;70830;42.290;-71.354;2023-11-21T06:50:09;5.38;;;1.52;;
81378;SDS011;70830;42.290;-71.354;2023-11-21T06:52:35;3.83;;;1.30;;
81378;SDS011;70830;42.290;-71.354;2023-11-21T06:55:01;3.60;;;1.55;;
81378;SDS011;70830;42.290;-71.354;2023-11-21T06:57:28;6.82;;;1.45;;
81378;SDS011;70830;42.290;-71.354;2023-11-21T06:59:54;5.03;;;1.42;;
81378;SDS011;70830;42.290;-71.354;2023-11-21T07:02:22;5.90;;;1.52;;
81378;SDS011;70830;42.290;-71.354;2023-11-21T07:04:49;3.67;;;1.58;;
81378;SDS011;70830;42.290;-71.354;2023-11-21T07:07:15;2.58;;;1.70;;
81378;SDS011;70830;42.290;-71.354;2023-11-21T07:09:41;3.00;;;1.48;;
81378;SDS011;70830;42.290;-71.354;2023-11-21T07:12:07;2.55;;;1.20;;
81378;SDS011;70830;42.290;-71.354;2023-11-21T07:14:33;2.70;;;1.27;;
81378;SDS011;70830;42.290;-71.354;2023-11-21T07:17:04;3.88;;;1.40;;
81378;SDS011;70830;42.290;-71.354;2023-11-21T07:19:31;3.58;;;1.50;;
81378;SDS011;70830;42.290;-71.354;2023-11-21T07:21:57;4.47;;;1.90;;
81378;SDS011;70830;42.290;-71.354;2023-11-21T07:24:23;2.08;;;1.10;;
81378;SDS011;70830;42.290;-71.354;2023-11-21T07:26:49;3.97;;;1.70;;
81378;SDS011;70830;42.290;-71.354;2023-11-21T07:29:15;3.83;;;1.33;;
81378;SDS011;70830;42.290;-71.354;2023-11-21T07:31:41;4.03;;;1.73;;
81378;SDS011;70830;42.290;-71.354;2023-11-21T07:34:07;2.90;;;1.13;;
81378;SDS011;70830;42.290;-71.354;2023-11-21T07:36:33;2.67;;;1.27;;
81378;SDS011;70830;42.290;-71.354;2023-11-21T07:38:59;5.18;;;1.40;;
81378;SDS011;70830;42.290;-71.354;2023-11-21T07:41:27;2.40;;;1.15;;
81378;SDS011;70830;42.290;-71.354;2023-11-21T07:43:55;3.58;;;1.35;;
81378;SDS011;70830;42.290;-71.354;2023-11-21T07:46:21;2.22;;;1.42;;
81378;SDS011;70830;42.290;-71.354;2023-11-21T07:48:47;3.03;;;1.38;;
81378;SDS011;70830;42.290;-71.354;2023-11-21T07:51:13;2.55;;;1.48;;
81378;SDS011;70830;42.290;-71.354;2023-11-21T07:53:39;2.72;;;1.40;;
81378;SDS011;70830;42.290;-71.354;2023-11-21T07:56:06;2.03;;;1.20;;
81378;SDS011;70830;42.290;-71.354;2023-11-21T07:58:34;4.68;;;1.95;;
81378;SDS011;70830;42.290;-71.354;2023-11-21T08:01:00;2.03;;;1.08;;
81378;SDS011;70830;42.290;-71.354;2023-11-21T08:03:27;2.65;;;0.95;;
81378;SDS011;70830;42.290;-71.354;2023-11-21T08:05:55;3.78;;;1.48;;
81378;SDS011;70830;42.290;-71.354;2023-11-21T08:08:22;3.33;;;1.35;;
81378;SDS011;70830;42.290;-71.354;2023-11-21T08:10:49;2.97;;;1.65;;
81378;SDS011;70830;42.290;-71.354;2023-11-21T08:13:27;4.30;;;1.60;;
81378;SDS011;70830;42.290;-71.354;2023-11-21T08:15:53;2.15;;;1.25;;
81378;SDS011;70830;42.290;-71.354;2023-11-21T08:18:21;2.65;;;1.17;;
81378;SDS011;70830;42.290;-71.354;2023-11-21T08:20:50;4.70;;;1.75;;
81378;SDS011;70830;42.290;-71.354;2023-11-21T08:23:16;5.15;;;2.08;;
81378;SDS011;70830;42.290;-71.354;2023-11-21T08:25:45;3.72;;;1.42;;
81378;SDS011;70830;42.290;-71.354;2023-11-21T08:28:15;3.35;;;1.35;;
81378;SDS011;70830;42.290;-71.354;2023-11-21T08:30:41;2.50;;;1.40;;
81378;SDS011;70830;42.290;-71.354;2023-11-21T08:33:07;2.90;;;1.50;;
81378;SDS011;70830;42.290;-71.354;2023-11-21T08:35:34;3.13;;;1.45;;
81378;SDS011;70830;42.290;-71.354;2023-11-21T08:38:01;4.88;;;1.45;;
81378;SDS011;70830;42.290;-71.354;2023-11-21T08:40:28;4.63;;;1.42;;
81378;SDS011;70830;42.290;-71.354;2023-11-21T08:42:54;3.50;;;1.42;;
81378;SDS011;70830;42.290;-71.354;2023-11-21T08:45:23;2.65;;;1.52;;
81378;SDS011;70830;42.290;-71.354;2023-11-21T08:47:51;3.80;;;1.35;;
81378;SDS011;70830;42.290;-71.354;2023-11-21T08:50:17;3.40;;;1.75;;
81378;SDS011;70830;42.290;-71.354;2023-11-21T08:52:44;2.88;;;1.55;;
81378;SDS011;70830;42.290;-71.354;2023-11-21T08:55:12;2.42;;;1.50;;
81378;SDS011;70830;42.290;-71.354;2023-11-21T08:57:39;2.85;;;1.50;;
81378;SDS011;70830;42.290;-71.354;2023-11-21T09:00:09;3.03;;;1.63;;
81378;SDS011;70830;42.290;-71.354;2023-11-21T09:02:37;3.65;;;1.48;;
81378;SDS011;70830;42.290;-71.354;2023-11-21T09:05:09;3.08;;;1.52;;
81378;SDS011;70830;42.290;-71.354;2023-11-21T09:07:36;2.85;;;1.30;;
81378;SDS011;70830;42.290;-71.354;2023-11-21T09:10:03;2.67;;;1.50;;
81378;SDS011;70830;42.290;-71.354;2023-11-21T09:12:33;4.25;;;1.65;;
81378;SDS011;70830;42.290;-71.354;2023-11-21T09:15:03;4.07;;;1.70;;
81378;SDS011;70830;42.290;-71.354;2023-11-21T09:17:30;4.07;;;1.98;;
81378;SDS011;70830;42.290;-71.354;2023-11-21T09:19:57;4.57;;;1.73;;
81378;SDS011;70830;42.290;-71.354;2023-11-21T09:22:23;3.53;;;1.55;;
81378;SDS011;70830;42.290;-71.354;2023-11-21T09:24:55;5.30;;;2.25;;
81378;SDS011;70830;42.290;-71.354;2023-11-21T09:27:23;2.05;;;1.48;;
81378;SDS011;70830;42.290;-71.354;2023-11-21T09:29:49;2.72;;;1.73;;
81378;SDS011;70830;42.290;-71.354;2023-11-21T09:32:15;2.92;;;1.70;;
81378;SDS011;70830;42.290;-71.354;2023-11-21T09:34:41;3.88;;;1.60;;
81378;SDS011;70830;42.290;-71.354;2023-11-21T09:37:07;4.00;;;1.85;;
81378;SDS011;70830;42.290;-71.354;2023-11-21T09:39:34;7.03;;;1.85;;
81378;SDS011;70830;42.290;-71.354;2023-11-21T09:42:04;4.28;;;1.70;;
81378;SDS011;70830;42.290;-71.354;2023-11-21T09:44:36;3.80;;;1.70;;
81378;SDS011;70830;42.290;-71.354;2023-11-21T09:47:08;3.33;;;2.10;;
81378;SDS011;70830;42.290;-71.354;2023-11-21T09:49:39;2.95;;;1.67;;
81378;SDS011;70830;42.290;-71.354;2023-11-21T09:52:08;6.20;;;1.55;;
81378;SDS011;70830;42.290;-71.354;2023-11-21T09:54:40;3.95;;;1.73;;
81378;SDS011;70830;42.290;-71.354;2023-11-21T09:57:06;2.97;;;1.63;;
81378;SDS011;70830;42.290;-71.354;2023-11-21T09:59:34;2.92;;;1.95;;
81378;SDS011;70830;42.290;-71.354;2023-11-21T10:02:03;5.75;;;1.88;;
81378;SDS011;70830;42.290;-71.354;2023-11-21T10:04:29;3.42;;;1.77;;
81378;SDS011;70830;42.290;-71.354;2023-11-21T10:06:56;4.50;;;1.50;;
81378;SDS011;70830;42.290;-71.354;2023-11-21T10:09:23;4.50;;;1.60;;
81378;SDS011;70830;42.290;-71.354;2023-11-21T10:11:52;3.47;;;1.83;;
81378;SDS011;70830;42.290;-71.354;2023-11-21T10:14:19;6.57;;;3.03;;
81378;SDS011;70830;42.290;-71.354;2023-11-21T10:16:51;4.38;;;2.00;;
81378;SDS011;70830;42.290;-71.354;2023-11-21T10:19:18;5.57;;;2.05;;
81378;SDS011;70830;42.290;-71.354;2023-11-21T10:21:46;4.95;;;2.05;;
81378;SDS011;70830;42.290;-71.354;2023-11-21T10:24:12;4.78;;;1.95;;
81378;SDS011;70830;42.290;-71.354;2023-11-21T10:26:38;4.53;;;1.92;;
81378;SDS011;70830;42.290;-71.354;2023-11-21T10:29:04;4.80;;;2.15;;
81378;SDS011;70830;42.290;-71.354;2023-11-21T10:31:30;5.65;;;2.20;;
81378;SDS011;70830;42.290;-71.354;2023-11-21T10:34:14;5.35;;;2.10;;
81378;SDS011;70830;42.290;-71.354;2023-11-21T10:36:41;3.55;;;2.10;;
81378;SDS011;70830;42.290;-71.354;2023-11-21T10:39:07;4.20;;;1.95;;
81378;SDS011;70830;42.290;-71.354;2023-11-21T10:41:35;3.15;;;1.60;;
81378;SDS011;70830;42.290;-71.354;2023-11-21T10:44:01;5.68;;;2.00;;
81378;SDS011;70830;42.290;-71.354;2023-11-21T10:46:32;3.05;;;1.90;;
81378;SDS011;70830;42.290;-71.354;2023-11-21T10:48:59;5.70;;;2.53;;
81378;SDS011;70830;42.290;-71.354;2023-11-21T10:51:25;4.43;;;2.08;;
81378;SDS011;70830;42.290;-71.354;2023-11-21T10:53:52;6.90;;;2.45;;
81378;SDS011;70830;42.290;-71.354;2023-11-21T10:56:18;4.45;;;2.00;;
81378;SDS011;70830;42.290;-71.354;2023-11-21T10:58:50;3.55;;;1.88;;
81378;SDS011;70830;42.290;-71.354;2023-11-21T11:01:17;4.65;;;2.15;;
81378;SDS011;70830;42.290;-71.354;2023-11-21T11:03:46;15.30;;;3.15;;
81378;SDS011;70830;42.290;-71.354;2023-11-21T11:06:14;4.82;;;2.03;;
81378;SDS011;70830;42.290;-71.354;2023-11-21T11:08:40;4.88;;;2.17;;
81378;SDS011;70830;42.290;-71.354;2023-11-21T11:11:07;4.35;;;1.90;;
81378;SDS011;70830;42.290;-71.354;2023-11-21T11:13:34;2.38;;;1.40;;
81378;SDS011;70830;42.290;-71.354;2023-11-21T11:16:01;5.68;;;2.00;;
81378;SDS011;70830;42.290;-71.354;2023-11-21T11:18:29;4.18;;;1.83;;
81378;SDS011;70830;42.290;-71.354;2023-11-21T11:20:57;5.03;;;2.00;;
81378;SDS011;70830;42.290;-71.354;2023-11-21T11:23:40;5.07;;;2.03;;
81378;SDS011;70830;42.290;-71.354;2023-11-21T11:27:06;5.82;;;1.88;;
81378;SDS011;70830;42.290;-71.354;2023-11-21T11:35:34;5.50;;;1.70;;
81378;SDS011;70830;42.290;-71.354;2023-11-21T11:38:07;5.72;;;1.67;;
81378;SDS011;70830;42.290;-71.354;2023-11-21T11:40:45;5.88;;;1.73;;
81378;SDS011;70830;42.290;-71.354;2023-11-21T11:43:12;5.05;;;1.77;;
81378;SDS011;70830;42.290;-71.354;2023-11-21T11:45:38;5.90;;;2.63;;
81378;SDS011;70830;42.290;-71.354;2023-11-21T11:48:07;7.97;;;1.85;;
81378;SDS011;70830;42.290;-71.354;2023-11-21T11:50:33;5.88;;;2.00;;
81378;SDS011;70830;42.290;-71.354;2023-11-21T11:53:11;4.82;;;2.05;;
81378;SDS011;70830;42.290;-71.354;2023-11-21T11:55:38;4.65;;;2.25;;
81378;SDS011;70830;42.290;-71.354;2023-11-21T11:58:05;6.10;;;2.58;;
81378;SDS011;70830;42.290;-71.354;2023-11-21T12:00:35;7.07;;;1.65;;
81378;SDS011;70830;42.290;-71.354;2023-11-21T12:03:05;6.60;;;1.98;;
81378;SDS011;70830;42.290;-71.354;2023-11-21T12:05:32;4.32;;;2.10;;
81378;SDS011;70830;42.290;-71.354;2023-11-21T12:08:07;4.32;;;1.98;;
81378;SDS011;70830;42.290;-71.354;2023-11-21T12:10:34;4.63;;;2.00;;
81378;SDS011;70830;42.290;-71.354;2023-11-21T12:13:02;4.65;;;1.77;;
81378;SDS011;70830;42.290;-71.354;2023-11-21T12:15:35;4.78;;;1.85;;
81378;SDS011;70830;42.290;-71.354;2023-11-21T12:18:02;3.72;;;1.80;;
81378;SDS011;70830;42.290;-71.354;2023-11-21T12:20:29;3.65;;;1.63;;
81378;SDS011;70830;42.290;-71.354;2023-11-21T12:22:57;6.18;;;3.72;;
81378;SDS011;70830;42.290;-71.354;2023-11-21T12:25:27;4.35;;;2.20;;
81378;SDS011;70830;42.290;-71.354;2023-11-21T12:27:55;5.05;;;1.90;;
81378;SDS011;70830;42.290;-71.354;2023-11-21T12:30:23;4.63;;;2.50;;
81378;SDS011;70830;42.290;-71.354;2023-11-21T12:32:55;5.50;;;1.85;;
81378;SDS011;70830;42.290;-71.354;2023-11-21T12:35:24;6.82;;;2.05;;
81378;SDS011;70830;42.290;-71.354;2023-11-21T12:37:52;3.78;;;2.08;;
81378;SDS011;70830;42.290;-71.354;2023-11-21T12:40:19;5.18;;;2.10;;
81378;SDS011;70830;42.290;-71.354;2023-11-21T12:42:48;4.35;;;3.00;;
81378;SDS011;70830;42.290;-71.354;2023-11-21T12:47:48;5.10;;;2.67;;
81378;SDS011;70830;42.290;-71.354;2023-11-21T12:50:23;2.72;;;2.45;;
81378;SDS011;70830;42.290;-71.354;2023-11-21T12:52:54;4.40;;;3.15;;
81378;SDS011;70830;42.290;-71.354;2023-11-21T12:55:24;5.50;;;3.17;;
81378;SDS011;70830;42.290;-71.354;2023-11-21T12:57:52;5.18;;;3.20;;
81378;SDS011;70830;42.290;-71.354;2023-11-21T13:00:31;3.22;;;2.90;;
81378;SDS011;70830;42.290;-71.354;2023-11-21T13:03:02;3.92;;;3.22;;
81378;SDS011;70830;42.290;-71.354;2023-11-21T13:05:31;3.80;;;3.47;;
81378;SDS011;70830;42.290;-71.354;2023-11-21T13:08:01;4.72;;;2.90;;
81378;SDS011;70830;42.290;-71.354;2023-11-21T13:10:29;4.28;;;3.13;;
81378;SDS011;70830;42.290;-71.354;2023-11-21T13:13:01;4.05;;;3.00;;
81378;SDS011;70830;42.290;-71.354;2023-11-21T13:15:31;4.25;;;2.95;;
81378;SDS011;70830;42.290;-71.354;2023-11-21T13:17:58;3.63;;;2.97;;
81378;SDS011;70830;42.290;-71.354;2023-11-21T13:20:25;4.75;;;2.80;;
81378;SDS011;70830;42.290;-71.354;2023-11-21T13:22:51;3.88;;;2.92;;
81378;SDS011;70830;42.290;-71.354;2023-11-21T13:25:29;4.38;;;3.22;;
81378;SDS011;70830;42.290;-71.354;2023-11-21T13:27:59;6.22;;;2.80;;
81378;SDS011;70830;42.290;-71.354;2023-11-21T13:30:28;4.25;;;3.30;;
81378;SDS011;70830;42.290;-71.354;2023-11-21T13:33:02;3.75;;;2.95;;
81378;SDS011;70830;42.290;-71.354;2023-11-21T13:35:33;3.90;;;3.22;;
81378;SDS011;70830;42.290;-71.354;2023-11-21T13:38:15;3.55;;;3.25;;
81378;SDS011;70830;42.290;-71.354;2023-11-21T13:40:46;3.58;;;3.28;;
81378;SDS011;70830;42.290;-71.354;2023-11-21T13:43:15;4.63;;;3.30;;
81378;SDS011;70830;42.290;-71.354;2023-11-21T13:45:44;5.15;;;3.88;;
81378;SDS011;70830;42.290;-71.354;2023-11-21T13:48:11;3.42;;;3.10;;
81378;SDS011;70830;42.290;-71.354;2023-11-21T13:50:46;6.25;;;3.00;;
81378;SDS011;70830;42.290;-71.354;2023-11-21T13:53:24;4.80;;;3.40;;
81378;SDS011;70830;42.290;-71.354;2023-11-21T13:55:54;3.80;;;3.30;;
81378;SDS011;70830;42.290;-71.354;2023-11-21T13:58:21;3.67;;;3.35;;
81378;SDS011;70830;42.290;-71.354;2023-11-21T14:00:57;4.30;;;3.20;;
81378;SDS011;70830;42.290;-71.354;2023-11-21T14:03:24;4.18;;;3.78;;
81378;SDS011;70830;42.290;-71.354;2023-11-21T14:05:58;3.58;;;3.17;;
81378;SDS011;70830;42.290;-71.354;2023-11-21T14:08:26;3.47;;;3.22;;
81378;SDS011;70830;42.290;-71.354;2023-11-21T14:10:55;4.40;;;3.60;;
81378;SDS011;70830;42.290;-71.354;2023-11-21T14:13:26;4.05;;;3.47;;
81378;SDS011;70830;42.290;-71.354;2023-11-21T14:15:52;5.50;;;3.47;;
81378;SDS011;70830;42.290;-71.354;2023-11-21T14:18:24;4.22;;;3.83;;
81378;SDS011;70830;42.290;-71.354;2023-11-21T14:21:01;3.88;;;3.40;;
81378;SDS011;70830;42.290;-71.354;2023-11-21T14:23:27;4.20;;;3.70;;
81378;SDS011;70830;42.290;-71.354;2023-11-21T14:25:55;3.70;;;3.40;;
81378;SDS011;70830;42.290;-71.354;2023-11-21T14:28:21;4.18;;;3.47;;
81378;SDS011;70830;42.290;-71.354;2023-11-21T14:30:48;7.65;;;3.20;;
81378;SDS011;70830;42.290;-71.354;2023-11-21T14:33:14;4.18;;;3.75;;